sensor_id;sensor_type;location;lat;lon;timestamp;P1;durP1;ratioP1;P2;durP2;ratioP2
55465;SDS011;41329;41.594;23.810;2022-07-22T00:01:18;3.65;;;3.35;;
55465;SDS011;41329;41.594;23.810;2022-07-22T00:03:44;4.85;;;3.50;;
55465;SDS011;41329;41.594;23.810;2022-07-22T00:06:10;3.42;;;3.13;;
55465;SDS011;41329;41.594;23.810;2022-07-22T00:08:36;4.05;;;3.75;;
55465;SDS011;41329;41.594;23.810;2022-07-22T00:11:01;6.00;;;5.03;;
55465;SDS011;41329;41.594;23.810;2022-07-22T00:13:28;4.93;;;4.57;;
55465;SDS011;41329;41.594;23.810;2022-07-22T00:15:53;5.18;;;4.78;;
55465;SDS011;41329;41.594;23.810;2022-07-22T00:18:19;4.35;;;4.05;;
55465;SDS011;41329;41.594;23.810;2022-07-22T00:20:44;4.75;;;4.35;;
55465;SDS011;41329;41.594;23.810;2022-07-22T00:23:10;4.57;;;4.25;;
55465;SDS011;41329;41.594;23.810;2022-07-22T00:25:35;4.18;;;3.85;;
55465;SDS011;41329;41.594;23.810;2022-07-22T00:28:01;4.68;;;4.00;;
55465;SDS011;41329;41.594;23.810;2022-07-22T00:30:26;4.07;;;3.78;;
55465;SDS011;41329;41.594;23.810;2022-07-22T00:32:52;4.28;;;3.88;;
55465;SDS011;41329;41.594;23.810;2022-07-22T00:35:20;5.53;;;3.95;;
55465;SDS011;41329;41.594;23.810;2022-07-22T00:37:46;4.15;;;3.92;;
55465;SDS011;41329;41.594;23.810;2022-07-22T00:40:11;5.03;;;4.13;;
55465;SDS011;41329;41.594;23.810;2022-07-22T00:42:37;4.90;;;4.45;;
55465;SDS011;41329;41.594;23.810;2022-07-22T00:45:03;4.47;;;4.18;;
55465;SDS011;41329;41.594;23.810;2022-07-22T00:47:29;4.60;;;4.20;;
55465;SDS011;41329;41.594;23.810;2022-07-22T00:49:54;4.30;;;3.90;;
55465;SDS011;41329;41.594;23.810;2022-07-22T00:52:20;4.47;;;4.18;;
55465;SDS011;41329;41.594;23.810;2022-07-22T00:54:47;4.72;;;4.32;;
55465;SDS011;41329;41.594;23.810;2022-07-22T00:57:13;4.10;;;3.80;;
55465;SDS011;41329;41.594;23.810;2022-07-22T00:59:38;4.25;;;3.85;;
55465;SDS011;41329;41.594;23.810;2022-07-22T01:02:04;4.38;;;4.07;;
55465;SDS011;41329;41.594;23.810;2022-07-22T01:04:30;3.85;;;3.55;;
55465;SDS011;41329;41.594;23.810;2022-07-22T01:06:55;4.50;;;4.20;;
55465;SDS011;41329;41.594;23.810;2022-07-22T01:09:21;4.47;;;4.18;;
55465;SDS011;41329;41.594;23.810;2022-07-22T01:11:47;4.68;;;4.28;;
55465;SDS011;41329;41.594;23.810;2022-07-22T01:14:12;4.80;;;4.50;;
55465;SDS011;41329;41.594;23.810;2022-07-22T01:16:38;4.53;;;4.28;;
55465;SDS011;41329;41.594;23.810;2022-07-22T01:19:04;4.47;;;4.18;;
55465;SDS011;41329;41.594;23.810;2022-07-22T01:21:30;4.82;;;4.20;;
55465;SDS011;41329;41.594;23.810;2022-07-22T01:23:56;4.03;;;3.72;;
55465;SDS011;41329;41.594;23.810;2022-07-22T01:26:22;4.13;;;3.80;;
55465;SDS011;41329;41.594;23.810;2022-07-22T01:28:48;4.50;;;4.15;;
55465;SDS011;41329;41.594;23.810;2022-07-22T01:31:13;3.90;;;3.65;;
55465;SDS011;41329;41.594;23.810;2022-07-22T01:33:39;4.53;;;4.18;;
55465;SDS011;41329;41.594;23.810;2022-07-22T01:36:04;4.28;;;3.97;;
55465;SDS011;41329;41.594;23.810;2022-07-22T01:38:30;5.22;;;4.82;;
55465;SDS011;41329;41.594;23.810;2022-07-22T01:40:56;4.07;;;3.80;;
55465;SDS011;41329;41.594;23.810;2022-07-22T01:43:21;4.25;;;3.95;;
55465;SDS011;41329;41.594;23.810;2022-07-22T01:45:50;3.90;;;3.60;;
55465;SDS011;41329;41.594;23.810;2022-07-22T01:48:17;5.20;;;4.90;;
55465;SDS011;41329;41.594;23.810;2022-07-22T01:50:43;6.82;;;6.13;;
55465;SDS011;41329;41.594;23.810;2022-07-22T01:53:12;5.32;;;4.97;;
55465;SDS011;41329;41.594;23.810;2022-07-22T01:55:38;5.20;;;4.70;;
55465;SDS011;41329;41.594;23.810;2022-07-22T01:58:04;5.57;;;5.18;;
55465;SDS011;41329;41.594;23.810;2022-07-22T02:00:30;4.70;;;4.25;;
55465;SDS011;41329;41.594;23.810;2022-07-22T02:02:57;5.43;;;5.03;;
55465;SDS011;41329;41.594;23.810;2022-07-22T02:05:24;4.78;;;4.40;;
55465;SDS011;41329;41.594;23.810;2022-07-22T02:07:50;5.18;;;4.88;;
55465;SDS011;41329;41.594;23.810;2022-07-22T02:10:15;4.57;;;4.18;;
55465;SDS011;41329;41.594;23.810;2022-07-22T02:12:41;5.20;;;4.85;;
55465;SDS011;41329;41.594;23.810;2022-07-22T02:15:07;5.13;;;4.68;;
55465;SDS011;41329;41.594;23.810;2022-07-22T02:17:34;4.65;;;4.35;;
55465;SDS011;41329;41.594;23.810;2022-07-22T02:20:00;4.97;;;4.57;;
55465;SDS011;41329;41.594;23.810;2022-07-22T02:22:26;5.55;;;5.25;;
55465;SDS011;41329;41.594;23.810;2022-07-22T02:24:51;5.68;;;5.28;;
55465;SDS011;41329;41.594;23.810;2022-07-22T02:27:17;5.63;;;5.30;;
55465;SDS011;41329;41.594;23.810;2022-07-22T02:29:42;5.25;;;4.88;;
55465;SDS011;41329;41.594;23.810;2022-07-22T02:32:08;5.18;;;4.78;;
55465;SDS011;41329;41.594;23.810;2022-07-22T02:34:33;4.88;;;4.57;;
55465;SDS011;41329;41.594;23.810;2022-07-22T02:36:59;14.27;;;5.22;;
55465;SDS011;41329;41.594;23.810;2022-07-22T02:39:24;8.40;;;4.30;;
55465;SDS011;41329;41.594;23.810;2022-07-22T02:41:50;5.03;;;4.55;;
55465;SDS011;41329;41.594;23.810;2022-07-22T02:44:15;4.22;;;3.92;;
55465;SDS011;41329;41.594;23.810;2022-07-22T02:46:41;4.68;;;4.35;;
55465;SDS011;41329;41.594;23.810;2022-07-22T02:49:07;4.47;;;4.28;;
55465;SDS011;41329;41.594;23.810;2022-07-22T02:51:32;4.78;;;4.38;;
55465;SDS011;41329;41.594;23.810;2022-07-22T02:53:58;4.60;;;4.30;;
55465;SDS011;41329;41.594;23.810;2022-07-22T02:56:23;5.45;;;5.05;;
55465;SDS011;41329;41.594;23.810;2022-07-22T02:58:49;4.82;;;4.53;;
55465;SDS011;41329;41.594;23.810;2022-07-22T03:01:17;7.18;;;4.85;;
55465;SDS011;41329;41.594;23.810;2022-07-22T03:03:44;11.40;;;5.20;;
55465;SDS011;41329;41.594;23.810;2022-07-22T03:06:10;8.18;;;5.13;;
55465;SDS011;41329;41.594;23.810;2022-07-22T03:08:36;7.45;;;5.07;;
55465;SDS011;41329;41.594;23.810;2022-07-22T03:11:02;5.43;;;5.03;;
55465;SDS011;41329;41.594;23.810;2022-07-22T03:13:28;6.80;;;5.07;;
55465;SDS011;41329;41.594;23.810;2022-07-22T03:15:53;4.72;;;4.32;;
55465;SDS011;41329;41.594;23.810;2022-07-22T03:18:19;5.40;;;4.95;;
55465;SDS011;41329;41.594;23.810;2022-07-22T03:20:44;5.95;;;5.35;;
55465;SDS011;41329;41.594;23.810;2022-07-22T03:23:10;8.93;;;5.78;;
55465;SDS011;41329;41.594;23.810;2022-07-22T03:25:35;5.20;;;4.80;;
55465;SDS011;41329;41.594;23.810;2022-07-22T03:28:01;5.43;;;5.13;;
55465;SDS011;41329;41.594;23.810;2022-07-22T03:30:27;11.18;;;10.07;;
55465;SDS011;41329;41.594;23.810;2022-07-22T03:32:52;40.10;;;28.85;;
55465;SDS011;41329;41.594;23.810;2022-07-22T03:35:18;24.35;;;19.88;;
55465;SDS011;41329;41.594;23.810;2022-07-22T03:37:43;8.35;;;6.32;;
55465;SDS011;41329;41.594;23.810;2022-07-22T03:40:10;6.03;;;5.35;;
55465;SDS011;41329;41.594;23.810;2022-07-22T03:42:36;7.65;;;5.78;;
55465;SDS011;41329;41.594;23.810;2022-07-22T03:45:01;12.90;;;5.63;;
55465;SDS011;41329;41.594;23.810;2022-07-22T03:47:27;6.78;;;5.97;;
55465;SDS011;41329;41.594;23.810;2022-07-22T03:49:53;7.47;;;6.78;;
55465;SDS011;41329;41.594;23.810;2022-07-22T03:52:18;9.85;;;6.70;;
55465;SDS011;41329;41.594;23.810;2022-07-22T03:54:43;10.95;;;6.38;;
55465;SDS011;41329;41.594;23.810;2022-07-22T03:57:09;7.57;;;5.85;;
55465;SDS011;41329;41.594;23.810;2022-07-22T03:59:35;6.90;;;6.20;;
55465;SDS011;41329;41.594;23.810;2022-07-22T04:02:01;10.45;;;5.85;;
55465;SDS011;41329;41.594;23.810;2022-07-22T04:04:27;7.95;;;5.95;;
55465;SDS011;41329;41.594;23.810;2022-07-22T04:06:53;16.52;;;6.65;;
55465;SDS011;41329;41.594;23.810;2022-07-22T04:09:18;8.13;;;5.55;;
55465;SDS011;41329;41.594;23.810;2022-07-22T04:11:44;9.27;;;5.75;;
55465;SDS011;41329;41.594;23.810;2022-07-22T04:14:11;10.38;;;5.72;;
55465;SDS011;41329;41.594;23.810;2022-07-22T04:16:36;11.75;;;6.60;;
55465;SDS011;41329;41.594;23.810;2022-07-22T04:19:02;12.18;;;7.03;;
55465;SDS011;41329;41.594;23.810;2022-07-22T04:21:28;15.75;;;7.05;;
55465;SDS011;41329;41.594;23.810;2022-07-22T04:23:54;13.63;;;8.18;;
55465;SDS011;41329;41.594;23.810;2022-07-22T04:26:19;23.10;;;9.32;;
55465;SDS011;41329;41.594;23.810;2022-07-22T04:28:45;21.15;;;8.45;;
55465;SDS011;41329;41.594;23.810;2022-07-22T04:31:10;12.63;;;8.98;;
55465;SDS011;41329;41.594;23.810;2022-07-22T04:33:36;15.60;;;9.07;;
55465;SDS011;41329;41.594;23.810;2022-07-22T04:36:02;13.98;;;8.77;;
55465;SDS011;41329;41.594;23.810;2022-07-22T04:38:28;15.40;;;9.38;;
55465;SDS011;41329;41.594;23.810;2022-07-22T04:40:53;23.90;;;8.43;;
55465;SDS011;41329;41.594;23.810;2022-07-22T04:43:19;15.30;;;8.52;;
55465;SDS011;41329;41.594;23.810;2022-07-22T04:45:44;28.10;;;9.23;;
55465;SDS011;41329;41.594;23.810;2022-07-22T04:48:10;12.55;;;9.13;;
55465;SDS011;41329;41.594;23.810;2022-07-22T04:50:36;19.05;;;9.85;;
55465;SDS011;41329;41.594;23.810;2022-07-22T04:53:02;18.75;;;9.18;;
55465;SDS011;41329;41.594;23.810;2022-07-22T04:55:27;13.75;;;8.68;;
55465;SDS011;41329;41.594;23.810;2022-07-22T04:57:53;11.95;;;8.23;;
55465;SDS011;41329;41.594;23.810;2022-07-22T05:00:18;16.58;;;8.63;;
55465;SDS011;41329;41.594;23.810;2022-07-22T05:02:44;16.55;;;8.80;;
55465;SDS011;41329;41.594;23.810;2022-07-22T05:05:09;23.40;;;9.10;;
55465;SDS011;41329;41.594;23.810;2022-07-22T05:07:35;19.60;;;9.85;;
55465;SDS011;41329;41.594;23.810;2022-07-22T05:10:01;16.45;;;10.48;;
55465;SDS011;41329;41.594;23.810;2022-07-22T05:12:26;20.10;;;10.57;;
55465;SDS011;41329;41.594;23.810;2022-07-22T05:14:52;23.08;;;10.07;;
55465;SDS011;41329;41.594;23.810;2022-07-22T05:17:17;33.97;;;11.00;;
55465;SDS011;41329;41.594;23.810;2022-07-22T05:19:43;33.80;;;10.45;;
55465;SDS011;41329;41.594;23.810;2022-07-22T05:22:08;16.27;;;9.35;;
55465;SDS011;41329;41.594;23.810;2022-07-22T05:24:34;15.95;;;9.90;;
55465;SDS011;41329;41.594;23.810;2022-07-22T05:27:00;15.50;;;10.65;;
55465;SDS011;41329;41.594;23.810;2022-07-22T05:29:26;10.05;;;9.05;;
55465;SDS011;41329;41.594;23.810;2022-07-22T05:31:51;14.88;;;13.00;;
55465;SDS011;41329;41.594;23.810;2022-07-22T05:34:19;17.50;;;12.32;;
55465;SDS011;41329;41.594;23.810;2022-07-22T05:36:45;17.35;;;12.95;;
55465;SDS011;41329;41.594;23.810;2022-07-22T05:39:10;13.88;;;12.50;;
55465;SDS011;41329;41.594;23.810;2022-07-22T05:41:36;15.82;;;11.63;;
55465;SDS011;41329;41.594;23.810;2022-07-22T05:44:02;14.45;;;12.88;;
55465;SDS011;41329;41.594;23.810;2022-07-22T05:46:28;16.52;;;14.70;;
55465;SDS011;41329;41.594;23.810;2022-07-22T05:48:54;15.75;;;12.93;;
55465;SDS011;41329;41.594;23.810;2022-07-22T05:51:20;15.32;;;12.02;;
55465;SDS011;41329;41.594;23.810;2022-07-22T05:53:45;12.85;;;11.68;;
55465;SDS011;41329;41.594;23.810;2022-07-22T05:56:11;14.75;;;11.48;;
55465;SDS011;41329;41.594;23.810;2022-07-22T05:58:37;9.10;;;8.50;;
55465;SDS011;41329;41.594;23.810;2022-07-22T06:01:03;9.73;;;8.95;;
55465;SDS011;41329;41.594;23.810;2022-07-22T06:03:29;8.57;;;7.72;;
55465;SDS011;41329;41.594;23.810;2022-07-22T06:05:55;7.95;;;7.25;;
55465;SDS011;41329;41.594;23.810;2022-07-22T06:08:20;7.70;;;7.20;;
55465;SDS011;41329;41.594;23.810;2022-07-22T06:10:46;8.65;;;8.00;;
55465;SDS011;41329;41.594;23.810;2022-07-22T06:13:12;9.10;;;8.50;;
55465;SDS011;41329;41.594;23.810;2022-07-22T06:15:37;10.70;;;9.73;;
55465;SDS011;41329;41.594;23.810;2022-07-22T06:18:03;10.82;;;10.00;;
55465;SDS011;41329;41.594;23.810;2022-07-22T06:20:28;10.40;;;9.80;;
55465;SDS011;41329;41.594;23.810;2022-07-22T06:22:54;11.15;;;10.27;;
55465;SDS011;41329;41.594;23.810;2022-07-22T06:25:19;10.13;;;9.48;;
55465;SDS011;41329;41.594;23.810;2022-07-22T06:27:45;11.20;;;9.77;;
55465;SDS011;41329;41.594;23.810;2022-07-22T06:30:13;11.25;;;10.45;;
55465;SDS011;41329;41.594;23.810;2022-07-22T06:32:38;11.32;;;10.50;;
55465;SDS011;41329;41.594;23.810;2022-07-22T06:35:04;12.50;;;11.35;;
55465;SDS011;41329;41.594;23.810;2022-07-22T06:37:30;11.68;;;10.70;;
55465;SDS011;41329;41.594;23.810;2022-07-22T06:39:55;11.43;;;10.65;;
55465;SDS011;41329;41.594;23.810;2022-07-22T06:42:21;9.25;;;8.65;;
55465;SDS011;41329;41.594;23.810;2022-07-22T06:44:47;10.52;;;9.82;;
55465;SDS011;41329;41.594;23.810;2022-07-22T06:47:13;9.65;;;9.05;;
55465;SDS011;41329;41.594;23.810;2022-07-22T06:49:39;9.77;;;8.98;;
55465;SDS011;41329;41.594;23.810;2022-07-22T06:52:04;16.42;;;9.48;;
55465;SDS011;41329;41.594;23.810;2022-07-22T06:54:30;11.05;;;10.23;;
55465;SDS011;41329;41.594;23.810;2022-07-22T06:56:55;10.18;;;9.38;;
55465;SDS011;41329;41.594;23.810;2022-07-22T06:59:22;9.38;;;8.55;;
55465;SDS011;41329;41.594;23.810;2022-07-22T07:01:48;8.40;;;7.63;;
55465;SDS011;41329;41.594;23.810;2022-07-22T07:04:14;8.68;;;8.07;;
55465;SDS011;41329;41.594;23.810;2022-07-22T07:06:40;8.70;;;7.90;;
55465;SDS011;41329;41.594;23.810;2022-07-22T07:09:05;8.40;;;6.93;;
55465;SDS011;41329;41.594;23.810;2022-07-22T07:11:31;7.57;;;6.80;;
55465;SDS011;41329;41.594;23.810;2022-07-22T07:13:56;10.40;;;6.25;;
55465;SDS011;41329;41.594;23.810;2022-07-22T07:16:22;10.00;;;8.68;;
55465;SDS011;41329;41.594;23.810;2022-07-22T07:18:47;23.15;;;20.85;;
55465;SDS011;41329;41.594;23.810;2022-07-22T07:21:13;12.20;;;11.30;;
55465;SDS011;41329;41.594;23.810;2022-07-22T07:23:38;6.95;;;6.45;;
55465;SDS011;41329;41.594;23.810;2022-07-22T07:26:04;16.25;;;8.57;;
55465;SDS011;41329;41.594;23.810;2022-07-22T07:28:29;7.85;;;6.88;;
55465;SDS011;41329;41.594;23.810;2022-07-22T07:30:55;8.02;;;6.63;;
55465;SDS011;41329;41.594;23.810;2022-07-22T07:33:20;12.15;;;6.57;;
55465;SDS011;41329;41.594;23.810;2022-07-22T07:35:46;41.20;;;10.15;;
55465;SDS011;41329;41.594;23.810;2022-07-22T07:38:11;10.23;;;5.75;;
55465;SDS011;41329;41.594;23.810;2022-07-22T07:40:37;13.95;;;7.22;;
55465;SDS011;41329;41.594;23.810;2022-07-22T07:43:02;13.90;;;7.10;;
55465;SDS011;41329;41.594;23.810;2022-07-22T07:45:28;9.77;;;6.40;;
55465;SDS011;41329;41.594;23.810;2022-07-22T07:47:54;214.50;;;29.02;;
55465;SDS011;41329;41.594;23.810;2022-07-22T07:50:20;169.02;;;24.08;;
55465;SDS011;41329;41.594;23.810;2022-07-22T07:52:45;144.65;;;21.15;;
55465;SDS011;41329;41.594;23.810;2022-07-22T07:55:14;116.00;;;17.55;;
55465;SDS011;41329;41.594;23.810;2022-07-22T07:57:41;41.05;;;10.85;;
55465;SDS011;41329;41.594;23.810;2022-07-22T08:00:09;53.97;;;12.60;;
55465;SDS011;41329;41.594;23.810;2022-07-22T08:02:35;63.78;;;12.50;;
55465;SDS011;41329;41.594;23.810;2022-07-22T08:05:01;74.13;;;11.70;;
55465;SDS011;41329;41.594;23.810;2022-07-22T08:07:27;68.40;;;12.57;;
55465;SDS011;41329;41.594;23.810;2022-07-22T08:09:53;91.20;;;14.35;;
55465;SDS011;41329;41.594;23.810;2022-07-22T08:12:18;121.97;;;18.05;;
55465;SDS011;41329;41.594;23.810;2022-07-22T08:14:44;193.55;;;26.70;;
55465;SDS011;41329;41.594;23.810;2022-07-22T08:17:09;149.40;;;21.45;;
55465;SDS011;41329;41.594;23.810;2022-07-22T08:19:35;217.95;;;31.08;;
55465;SDS011;41329;41.594;23.810;2022-07-22T08:22:00;57.50;;;12.55;;
55465;SDS011;41329;41.594;23.810;2022-07-22T08:24:26;75.90;;;14.13;;
55465;SDS011;41329;41.594;23.810;2022-07-22T08:26:51;67.40;;;12.82;;
55465;SDS011;41329;41.594;23.810;2022-07-22T08:29:17;176.32;;;23.67;;
55465;SDS011;41329;41.594;23.810;2022-07-22T08:31:43;138.85;;;21.15;;
55465;SDS011;41329;41.594;23.810;2022-07-22T08:34:08;93.85;;;15.40;;
55465;SDS011;41329;41.594;23.810;2022-07-22T08:36:34;71.93;;;11.27;;
55465;SDS011;41329;41.594;23.810;2022-07-22T08:38:59;15.73;;;6.20;;
55465;SDS011;41329;41.594;23.810;2022-07-22T08:41:25;29.90;;;7.40;;
55465;SDS011;41329;41.594;23.810;2022-07-22T08:43:51;27.23;;;6.60;;
55465;SDS011;41329;41.594;23.810;2022-07-22T08:46:17;28.98;;;7.25;;
55465;SDS011;41329;41.594;23.810;2022-07-22T08:48:42;22.10;;;6.90;;
55465;SDS011;41329;41.594;23.810;2022-07-22T08:51:10;33.60;;;8.02;;
55465;SDS011;41329;41.594;23.810;2022-07-22T08:53:36;20.67;;;8.10;;
55465;SDS011;41329;41.594;23.810;2022-07-22T08:56:01;14.15;;;6.97;;
55465;SDS011;41329;41.594;23.810;2022-07-22T08:58:27;17.15;;;5.82;;
55465;SDS011;41329;41.594;23.810;2022-07-22T09:01:12;10.20;;;4.60;;
55465;SDS011;41329;41.594;23.810;2022-07-22T09:03:49;19.10;;;6.38;;
55465;SDS011;41329;41.594;23.810;2022-07-22T09:06:20;7.60;;;4.40;;
55465;SDS011;41329;41.594;23.810;2022-07-22T09:08:55;88.53;;;14.73;;
55465;SDS011;41329;41.594;23.810;2022-07-22T09:11:24;16.40;;;5.43;;
55465;SDS011;41329;41.594;23.810;2022-07-22T09:13:51;42.78;;;8.48;;
55465;SDS011;41329;41.594;23.810;2022-07-22T09:19:12;13.95;;;7.05;;
55465;SDS011;41329;41.594;23.810;2022-07-22T09:21:39;10.90;;;5.30;;
55465;SDS011;41329;41.594;23.810;2022-07-22T09:24:06;15.32;;;5.53;;
55465;SDS011;41329;41.594;23.810;2022-07-22T09:26:33;15.55;;;6.25;;
55465;SDS011;41329;41.594;23.810;2022-07-22T09:29:00;9.57;;;6.10;;
55465;SDS011;41329;41.594;23.810;2022-07-22T09:31:28;5.75;;;4.40;;
55465;SDS011;41329;41.594;23.810;2022-07-22T09:34:04;7.32;;;4.88;;
55465;SDS011;41329;41.594;23.810;2022-07-22T09:36:30;7.18;;;4.53;;
55465;SDS011;41329;41.594;23.810;2022-07-22T09:38:56;5.28;;;4.78;;
55465;SDS011;41329;41.594;23.810;2022-07-22T09:41:22;8.93;;;7.88;;
55465;SDS011;41329;41.594;23.810;2022-07-22T09:43:48;5.68;;;3.70;;
55465;SDS011;41329;41.594;23.810;2022-07-22T09:46:15;8.45;;;7.85;;
55465;SDS011;41329;41.594;23.810;2022-07-22T09:48:40;6.90;;;3.55;;
55465;SDS011;41329;41.594;23.810;2022-07-22T09:51:08;3.38;;;3.15;;
55465;SDS011;41329;41.594;23.810;2022-07-22T09:53:33;3.63;;;3.22;;
55465;SDS011;41329;41.594;23.810;2022-07-22T09:56:01;4.05;;;3.15;;
55465;SDS011;41329;41.594;23.810;2022-07-22T09:58:29;4.68;;;3.85;;
55465;SDS011;41329;41.594;23.810;2022-07-22T10:00:57;4.30;;;4.00;;
55465;SDS011;41329;41.594;23.810;2022-07-22T10:03:31;3.42;;;2.97;;
55465;SDS011;41329;41.594;23.810;2022-07-22T10:05:59;3.88;;;2.83;;
55465;SDS011;41329;41.594;23.810;2022-07-22T10:08:26;3.17;;;2.95;;
55465;SDS011;41329;41.594;23.810;2022-07-22T10:10:52;5.03;;;3.35;;
55465;SDS011;41329;41.594;23.810;2022-07-22T10:13:19;3.50;;;3.13;;
55465;SDS011;41329;41.594;23.810;2022-07-22T10:15:45;3.10;;;2.80;;
55465;SDS011;41329;41.594;23.810;2022-07-22T10:18:18;3.80;;;2.63;;
55465;SDS011;41329;41.594;23.810;2022-07-22T10:20:44;3.50;;;3.20;;
55465;SDS011;41329;41.594;23.810;2022-07-22T10:23:11;3.63;;;2.97;;
55465;SDS011;41329;41.594;23.810;2022-07-22T10:25:56;4.03;;;3.03;;
55465;SDS011;41329;41.594;23.810;2022-07-22T10:28:28;3.55;;;2.50;;
55465;SDS011;41329;41.594;23.810;2022-07-22T10:33:50;3.85;;;2.72;;
55465;SDS011;41329;41.594;23.810;2022-07-22T10:41:35;5.75;;;2.70;;
55465;SDS011;41329;41.594;23.810;2022-07-22T10:44:02;4.80;;;3.05;;
55465;SDS011;41329;41.594;23.810;2022-07-22T10:46:47;4.75;;;3.00;;
55465;SDS011;41329;41.594;23.810;2022-07-22T10:49:16;3.78;;;2.97;;
55465;SDS011;41329;41.594;23.810;2022-07-22T10:52:32;3.45;;;2.30;;
55465;SDS011;41329;41.594;23.810;2022-07-22T10:54:32;3.78;;;2.80;;
55465;SDS011;41329;41.594;23.810;2022-07-22T10:56:58;5.45;;;2.88;;
55465;SDS011;41329;41.594;23.810;2022-07-22T10:59:24;7.20;;;2.80;;
55465;SDS011;41329;41.594;23.810;2022-07-22T11:01:51;3.28;;;2.92;;
55465;SDS011;41329;41.594;23.810;2022-07-22T11:04:23;8.02;;;3.20;;
55465;SDS011;41329;41.594;23.810;2022-07-22T11:06:53;6.13;;;2.45;;
55465;SDS011;41329;41.594;23.810;2022-07-22T11:09:21;3.00;;;2.55;;
55465;SDS011;41329;41.594;23.810;2022-07-22T11:11:52;3.25;;;2.95;;
55465;SDS011;41329;41.594;23.810;2022-07-22T11:14:20;3.13;;;2.53;;
55465;SDS011;41329;41.594;23.810;2022-07-22T11:17:00;3.70;;;2.80;;
55465;SDS011;41329;41.594;23.810;2022-07-22T11:19:30;4.15;;;3.00;;
55465;SDS011;41329;41.594;23.810;2022-07-22T11:22:00;3.20;;;2.80;;
55465;SDS011;41329;41.594;23.810;2022-07-22T11:24:27;3.58;;;2.83;;
55465;SDS011;41329;41.594;23.810;2022-07-22T11:26:54;3.47;;;2.63;;
55465;SDS011;41329;41.594;23.810;2022-07-22T11:31:50;5.05;;;2.60;;
55465;SDS011;41329;41.594;23.810;2022-07-22T11:34:17;3.70;;;2.65;;
55465;SDS011;41329;41.594;23.810;2022-07-22T11:36:44;2.42;;;2.30;;
55465;SDS011;41329;41.594;23.810;2022-07-22T11:39:12;4.32;;;2.53;;
55465;SDS011;41329;41.594;23.810;2022-07-22T11:41:39;7.30;;;2.80;;
55465;SDS011;41329;41.594;23.810;2022-07-22T11:44:05;3.20;;;2.90;;
55465;SDS011;41329;41.594;23.810;2022-07-22T11:46:36;2.75;;;2.55;;
55465;SDS011;41329;41.594;23.810;2022-07-22T11:49:03;3.47;;;2.40;;
55465;SDS011;41329;41.594;23.810;2022-07-22T11:51:29;2.80;;;2.60;;
55465;SDS011;41329;41.594;23.810;2022-07-22T11:53:55;3.83;;;2.40;;
55465;SDS011;41329;41.594;23.810;2022-07-22T11:56:21;3.70;;;2.53;;
55465;SDS011;41329;41.594;23.810;2022-07-22T11:58:47;3.10;;;2.53;;
55465;SDS011;41329;41.594;23.810;2022-07-22T12:01:24;4.68;;;2.30;;
55465;SDS011;41329;41.594;23.810;2022-07-22T12:03:54;3.05;;;2.67;;
55465;SDS011;41329;41.594;23.810;2022-07-22T12:06:22;3.33;;;2.83;;
55465;SDS011;41329;41.594;23.810;2022-07-22T12:08:52;2.47;;;2.28;;
55465;SDS011;41329;41.594;23.810;2022-07-22T12:11:20;2.85;;;2.50;;
55465;SDS011;41329;41.594;23.810;2022-07-22T12:13:50;3.38;;;2.70;;
55465;SDS011;41329;41.594;23.810;2022-07-22T12:16:26;3.08;;;2.15;;
55465;SDS011;41329;41.594;23.810;2022-07-22T12:18:54;3.90;;;2.40;;
55465;SDS011;41329;41.594;23.810;2022-07-22T12:21:25;2.88;;;2.63;;
55465;SDS011;41329;41.594;23.810;2022-07-22T12:23:56;7.70;;;2.30;;
55465;SDS011;41329;41.594;23.810;2022-07-22T12:32:46;3.03;;;2.67;;
55465;SDS011;41329;41.594;23.810;2022-07-22T12:35:02;4.03;;;2.30;;
55465;SDS011;41329;41.594;23.810;2022-07-22T12:37:33;3.38;;;3.00;;
55465;SDS011;41329;41.594;23.810;2022-07-22T12:40:05;3.03;;;2.70;;
55465;SDS011;41329;41.594;23.810;2022-07-22T12:42:34;5.25;;;2.83;;
55465;SDS011;41329;41.594;23.810;2022-07-22T12:45:04;4.50;;;2.45;;
55465;SDS011;41329;41.594;23.810;2022-07-22T12:47:40;4.75;;;2.83;;
55465;SDS011;41329;41.594;23.810;2022-07-22T12:53:18;5.40;;;2.40;;
55465;SDS011;41329;41.594;23.810;2022-07-22T12:58:17;4.97;;;2.45;;
55465;SDS011;41329;41.594;23.810;2022-07-22T13:00:44;2.33;;;2.15;;
55465;SDS011;41329;41.594;23.810;2022-07-22T13:03:11;3.30;;;1.95;;
55465;SDS011;41329;41.594;23.810;2022-07-22T13:05:37;2.90;;;2.30;;
55465;SDS011;41329;41.594;23.810;2022-07-22T13:08:03;3.92;;;2.22;;
55465;SDS011;41329;41.594;23.810;2022-07-22T13:10:29;3.22;;;2.45;;
55465;SDS011;41329;41.594;23.810;2022-07-22T13:12:55;7.15;;;2.67;;
55465;SDS011;41329;41.594;23.810;2022-07-22T13:15:21;2.20;;;2.00;;
55465;SDS011;41329;41.594;23.810;2022-07-22T13:17:47;3.45;;;2.33;;
55465;SDS011;41329;41.594;23.810;2022-07-22T13:20:13;7.25;;;2.88;;
55465;SDS011;41329;41.594;23.810;2022-07-22T13:22:41;2.45;;;2.00;;
55465;SDS011;41329;41.594;23.810;2022-07-22T13:25:07;3.55;;;2.40;;
55465;SDS011;41329;41.594;23.810;2022-07-22T13:27:33;3.17;;;2.00;;
55465;SDS011;41329;41.594;23.810;2022-07-22T13:29:58;5.40;;;2.60;;
55465;SDS011;41329;41.594;23.810;2022-07-22T13:32:24;3.63;;;2.15;;
55465;SDS011;41329;41.594;23.810;2022-07-22T13:34:49;4.07;;;2.45;;
55465;SDS011;41329;41.594;23.810;2022-07-22T13:37:15;2.33;;;2.10;;
55465;SDS011;41329;41.594;23.810;2022-07-22T13:39:40;3.35;;;2.53;;
55465;SDS011;41329;41.594;23.810;2022-07-22T13:42:07;4.20;;;2.30;;
55465;SDS011;41329;41.594;23.810;2022-07-22T13:44:33;3.38;;;2.28;;
55465;SDS011;41329;41.594;23.810;2022-07-22T13:47:00;2.97;;;2.20;;
55465;SDS011;41329;41.594;23.810;2022-07-22T13:49:26;2.63;;;2.10;;
55465;SDS011;41329;41.594;23.810;2022-07-22T13:51:52;2.05;;;1.88;;
55465;SDS011;41329;41.594;23.810;2022-07-22T13:54:18;2.50;;;1.88;;
55465;SDS011;41329;41.594;23.810;2022-07-22T13:56:44;2.75;;;2.10;;
55465;SDS011;41329;41.594;23.810;2022-07-22T13:59:12;3.30;;;1.90;;
55465;SDS011;41329;41.594;23.810;2022-07-22T14:01:38;2.88;;;2.60;;
55465;SDS011;41329;41.594;23.810;2022-07-22T14:04:03;2.30;;;2.05;;
55465;SDS011;41329;41.594;23.810;2022-07-22T14:06:30;3.28;;;1.70;;
55465;SDS011;41329;41.594;23.810;2022-07-22T14:08:55;2.35;;;2.13;;
55465;SDS011;41329;41.594;23.810;2022-07-22T14:11:21;2.45;;;2.22;;
55465;SDS011;41329;41.594;23.810;2022-07-22T14:13:46;3.42;;;2.60;;
55465;SDS011;41329;41.594;23.810;2022-07-22T14:16:12;2.20;;;1.77;;
55465;SDS011;41329;41.594;23.810;2022-07-22T14:18:55;2.97;;;2.13;;
55465;SDS011;41329;41.594;23.810;2022-07-22T14:21:21;3.78;;;2.05;;
55465;SDS011;41329;41.594;23.810;2022-07-22T14:23:46;2.55;;;2.15;;
55465;SDS011;41329;41.594;23.810;2022-07-22T14:26:12;3.60;;;2.00;;
55465;SDS011;41329;41.594;23.810;2022-07-22T14:28:37;2.20;;;2.00;;
55465;SDS011;41329;41.594;23.810;2022-07-22T14:31:03;2.95;;;2.00;;
55465;SDS011;41329;41.594;23.810;2022-07-22T14:33:28;2.17;;;2.00;;
55465;SDS011;41329;41.594;23.810;2022-07-22T14:35:54;3.00;;;2.03;;
55465;SDS011;41329;41.594;23.810;2022-07-22T14:38:19;4.18;;;2.30;;
55465;SDS011;41329;41.594;23.810;2022-07-22T14:40:45;3.88;;;2.10;;
55465;SDS011;41329;41.594;23.810;2022-07-22T14:43:10;2.63;;;1.73;;
55465;SDS011;41329;41.594;23.810;2022-07-22T14:45:36;2.30;;;2.03;;
55465;SDS011;41329;41.594;23.810;2022-07-22T14:48:01;1.92;;;1.83;;
55465;SDS011;41329;41.594;23.810;2022-07-22T14:50:27;3.53;;;1.92;;